Airfield :
LOGIN :

Register | Disclaimer

   EN    FR    IT 

 










Legend :    VFR   Marginal VFR   IFR   Intensive IFR   Very Intensive IFR
Visi :
Ceiling :
>= 8 km
>= 3000ft
5 to 8 km
1000 to 3000 ft
1500m to 5 km
500 to 1000 ft
800 to 1500m
200 to 500 ft
< 800m
< 200 ft
Symbols :   Thunderstorms  Fog  Heavy snow  Heavy precipitations  Wind > 20 kt
SIGMETs :     Misc.  Thunderstorms  Icing  Turbulence  Mountain Waves  Volcanic Ashes






- Airport Elevation : 404 ft
- IATA code : WRO


EPWR - Wroclaw

CURRENT METAR :
  • 291900Z 25005KT 230V290 9999 SCT024 BKN030 01/M02 Q1021

EXPIRED METARs :
  • 291830Z 26003KT 220V340 9999 BKN030 00/M02 Q1021
  • 291800Z 27007KT 240V300 9999 FEW015 BKN030 01/M02 Q1021
  • 291730Z 29008KT 9999 FEW015 BKN032 01/M02 Q1022
  • 291700Z 29009KT 9999 BKN014 01/M01 Q1022
  • 291630Z 29010KT 9999 OVC014 01/M01 Q1022

TAF TAF EPWR
Valid from the 29 at 18:00 until the 30 at 18:00 UTC


291730Z 2918/3018 27010KT 9999 BKN016
PROB30
TEMPO 2918/2921 4000 -SN BR OVC013
TEMPO 3005/3009 27015G25KT 2000 SN BR BKN006
PROB30
TEMPO 3005/3008 FZRA
BECMG 3009/3012 27017G30KT
TEMPO 3009/3018 4000 RASN BR BKN013



MET'MAP, your aeronautical weather chart ! - Copyright ORBIFLY December 2007 - Disclaimer

ORBIFLY MET'MAP TEAM :

Programming & Development : Alexandra Zaïnal
Original concept : Baudouin d'Aumeries
Technical & hardware support : Manuel Goepfert
Assistance : Marc-Olivier Méhu




SOURCES & CREDITS :

   NOAA